Aérodrome :
LOGIN :

S'inscrire | Disclaimer

   EN    FR    IT 

 










Légende :    VFR   VFR Marginal   IFR   IFR Intensif   IFR Très Intensif
Visi : 
Plafond : 
>= 8 km
>= 3000ft
5 à 8 km
1000 à 3000 ft
1500m à 5 km
500 à 1000 ft
800 à 1500m
200 à 500 ft
< 800m
< 200 ft
Symboles :   Orages  Brouillard  Fortes neiges  Fortes précipitations  Vent > 20 kt
SIGMETs :   Divers  Orages  Givrage  Turbulence  Onde Orograph.  Cendres Volcan.






- Altitude de l'aérodrome : 465 ft
- Code IATA : LEJ


EDDP - Leipzig Halle

DERNIER METAR :
  • 280420Z 34008KT CAVOK 10/09 Q1030 NOSIG

METARs EXPIRÉS :
  • 280350Z 34010KT 9999 FEW028 11/09 Q1030 NOSIG
  • 280320Z 34008KT 9999 FEW015 SCT020 11/10 Q1030 NOSIG
  • 280250Z 34008KT 9999 FEW005 SCT015 11/11 Q1030 TEMPO BKN010
  • 280220Z 34010KT 9999 -RA FEW007 BKN011 12/11 Q1030 BECMG BKN008
  • 280150Z 05003KT 340V080 9999 -RA FEW045 12/11 Q1029 NOSIG

TAF TAF EDDP
Valide du 28 à 00h jusqu'au 29 à 00h UTC


272300Z 2800/2824 34005KT 9999 SCT030
TEMPO 2800/2804 4000 RA BKN012
BECMG 2804/2806 34010KT
BECMG 2816/2818 36005KT



MET'MAP, la Météo Aéronautique d'un coup d'oeil ! - Copyright ORBIFLY Décembre 2007 - Disclaimer

ORBIFLY MET'MAP TEAM :

Programmation & Développement : Alexandra Zaïnal
Sur une idée originale de : Baudouin d'Aumeries
Assistance à la programmation : Marc-Olivier Méhu
Soutien technique & logistique : Manuel Goepfert

Contact : metmap@orbifly.com




SOURCES & CREDITS :

   NOAA